Time;durP1;ratioP1;P1;durP2;ratioP2;P2;SDS_P1;SDS_P2;PMS_P1;PMS_P2;Temp;Humidity;BMP_temperature;BMP_pressure;BME280_temperature;BME280_humidity;BME280_pressure;Samples;Min_cycle;Max_cycle;Signal;HPM_P1;HPM_P2
2023/08/16 00:01:02;;;;;;;5.07;2.00;;;14.30;99.90;;;;;;5073095;28;20623;-72
2023/08/16 00:03:28;;;;;;;3.17;2.08;;;14.30;99.90;;;;;;5082159;28;20043;-73
2023/08/16 00:05:54;;;;;;;5.07;2.53;;;14.30;99.90;;;;;;5067663;28;20546;-72
2023/08/16 00:08:20;;;;;;;4.40;2.05;;;14.30;99.90;;;;;;5078387;28;20055;-72
2023/08/16 00:10:46;;;;;;;3.45;2.17;;;14.20;99.90;;;;;;5085467;28;20050;-72
2023/08/16 00:13:11;;;;;;;5.45;2.40;;;14.20;99.90;;;;;;5081460;28;20043;-72
2023/08/16 00:15:37;;;;;;;3.17;2.47;;;14.30;99.90;;;;;;5082454;28;20120;-73
2023/08/16 00:18:04;;;;;;;4.28;2.72;;;14.20;99.90;;;;;;5088100;28;20481;-72
2023/08/16 00:20:30;;;;;;;5.05;2.55;;;14.20;99.90;;;;;;5067143;28;20700;-73
2023/08/16 00:22:56;;;;;;;3.88;2.30;;;14.20;99.90;;;;;;5070708;28;20088;-73
2023/08/16 00:25:22;;;;;;;3.75;2.15;;;14.20;99.90;;;;;;5086156;28;20566;-73
2023/08/16 00:27:48;;;;;;;3.85;2.08;;;14.20;99.90;;;;;;5060850;28;20719;-73
2023/08/16 00:30:14;;;;;;;5.30;3.55;;;14.20;99.90;;;;;;5086849;28;20130;-73
2023/08/16 00:32:41;;;;;;;3.00;2.05;;;14.10;99.90;;;;;;5099271;28;20041;-73
2023/08/16 00:35:09;;;;;;;3.70;2.42;;;14.00;99.90;;;;;;5118836;27;20047;-73
2023/08/16 00:37:35;;;;;;;3.20;2.38;;;13.90;99.90;;;;;;5084751;28;20390;-73
2023/08/16 00:40:01;;;;;;;3.58;2.47;;;13.80;99.90;;;;;;5084257;28;20043;-73
2023/08/16 00:42:27;;;;;;;3.53;2.58;;;13.70;99.90;;;;;;5070469;28;20055;-73
2023/08/16 00:44:53;;;;;;;5.38;2.97;;;13.70;99.90;;;;;;5084005;28;20126;-73
2023/08/16 00:47:18;;;;;;;4.20;2.85;;;13.80;99.90;;;;;;5064445;28;20052;-73
2023/08/16 00:49:44;;;;;;;5.03;2.95;;;13.80;99.90;;;;;;5117120;27;20514;-73
2023/08/16 00:52:10;;;;;;;3.45;2.08;;;13.80;99.90;;;;;;5069790;28;20043;-73
2023/08/16 00:54:36;;;;;;;3.92;2.22;;;13.90;99.90;;;;;;5069747;28;20040;-73
2023/08/16 00:57:03;;;;;;;4.20;1.90;;;13.90;99.90;;;;;;5084536;28;20460;-73
2023/08/16 00:59:29;;;;;;;4.13;2.92;;;13.80;99.90;;;;;;5084344;28;20509;-72
2023/08/16 01:01:55;;;;;;;4.35;2.53;;;13.80;99.90;;;;;;5085007;28;20270;-73
2023/08/16 01:04:21;;;;;;;4.57;2.80;;;13.80;99.90;;;;;;5085223;28;20654;-72
2023/08/16 01:06:48;;;;;;;3.00;2.33;;;13.80;99.90;;;;;;5078734;28;20048;-73
2023/08/16 01:09:14;;;;;;;5.57;2.70;;;13.80;99.90;;;;;;5075336;28;20054;-72
2023/08/16 01:12:05;;;;;;;4.65;3.45;;;13.70;99.90;;;;;;5064402;28;20037;-72
2023/08/16 01:14:55;;;;;;;4.95;2.83;;;13.70;99.90;;;;;;5063600;28;20074;-72
2023/08/16 01:17:23;;;;;;;3.33;2.78;;;13.60;99.90;;;;;;5055047;28;20076;-72
2023/08/16 01:19:52;;;;;;;4.10;3.00;;;13.50;99.90;;;;;;5082392;28;20096;-72
2023/08/16 01:22:54;;;;;;;3.67;2.97;;;13.60;99.90;;;;;;5079280;28;20129;-72
2023/08/16 01:25:39;;;;;;;5.50;3.50;;;13.60;99.90;;;;;;5062520;28;20040;-72
2023/08/16 01:28:05;;;;;;;4.85;3.90;;;13.50;99.90;;;;;;5079176;28;20109;-74
2023/08/16 01:30:31;;;;;;;4.72;2.90;;;13.50;99.90;;;;;;5081862;28;20032;-73
2023/08/16 01:33:17;;;;;;;3.53;3.00;;;13.50;99.90;;;;;;5079255;28;20700;-73
2023/08/16 01:35:44;;;;;;;5.05;3.25;;;13.50;99.90;;;;;;5080301;28;20228;-73
2023/08/16 01:38:12;;;;;;;4.13;2.50;;;13.50;99.90;;;;;;5063953;28;20059;-73
2023/08/16 01:40:54;;;;;;;3.60;2.22;;;13.50;99.90;;;;;;5080466;28;20044;-72
2023/08/16 01:43:21;;;;;;;4.78;2.55;;;13.50;99.90;;;;;;5079937;28;20084;-73
2023/08/16 01:45:49;;;;;;;3.95;2.65;;;13.40;99.90;;;;;;5080737;28;20054;-73
2023/08/16 01:48:16;;;;;;;4.75;3.80;;;13.40;99.90;;;;;;5079514;28;20048;-73
2023/08/16 01:50:44;;;;;;;5.40;2.60;;;13.40;99.90;;;;;;5073743;28;20048;-73
2023/08/16 01:53:10;;;;;;;3.47;2.42;;;13.40;99.90;;;;;;5081008;28;20058;-73
2023/08/16 01:55:36;;;;;;;2.80;2.28;;;13.30;99.90;;;;;;5081707;28;20071;-73
2023/08/16 01:58:02;;;;;;;5.75;2.65;;;13.30;99.90;;;;;;5082537;28;20076;-72
2023/08/16 02:00:28;;;;;;;4.03;3.25;;;13.30;99.90;;;;;;5061715;28;21073;-72
2023/08/16 02:02:54;;;;;;;5.13;3.60;;;13.30;99.90;;;;;;5080668;28;20097;-72
2023/08/16 02:05:19;;;;;;;4.57;3.47;;;13.30;99.90;;;;;;5079230;28;20059;-72
2023/08/16 02:07:45;;;;;;;4.38;3.60;;;13.20;99.90;;;;;;5081594;28;20440;-72
2023/08/16 02:10:11;;;;;;;4.13;3.30;;;13.20;99.90;;;;;;5080537;28;20052;-73
2023/08/16 02:12:36;;;;;;;5.22;3.95;;;13.10;99.90;;;;;;5079980;28;20047;-72
2023/08/16 02:15:03;;;;;;;5.13;3.72;;;13.10;99.90;;;;;;5079655;28;20091;-72
2023/08/16 02:17:28;;;;;;;6.95;3.42;;;13.00;99.90;;;;;;5080755;28;20554;-72
2023/08/16 02:19:54;;;;;;;4.95;3.08;;;12.90;99.90;;;;;;5080556;28;20074;-72
2023/08/16 02:22:20;;;;;;;7.10;4.35;;;12.90;99.90;;;;;;5065115;28;20035;-72
2023/08/16 02:24:46;;;;;;;6.20;3.40;;;12.80;99.90;;;;;;5078408;28;20827;-72
2023/08/16 02:27:11;;;;;;;3.70;2.85;;;12.80;99.90;;;;;;5066494;28;20051;-72
2023/08/16 02:29:37;;;;;;;4.57;3.20;;;12.70;99.90;;;;;;5062005;28;20057;-72
2023/08/16 02:32:03;;;;;;;7.53;4.97;;;12.70;99.90;;;;;;5064857;28;20040;-72
2023/08/16 02:34:29;;;;;;;8.52;6.15;;;12.70;99.90;;;;;;5076759;28;20055;-72
2023/08/16 02:36:55;;;;;;;12.07;7.95;;;12.70;99.90;;;;;;5081016;28;20072;-72
2023/08/16 02:39:20;;;;;;;5.85;4.85;;;12.70;99.90;;;;;;5063847;28;20408;-72
2023/08/16 02:41:46;;;;;;;7.68;6.65;;;12.60;99.90;;;;;;5078135;28;20052;-72
2023/08/16 02:44:12;;;;;;;16.60;9.05;;;12.60;99.90;;;;;;5063980;28;20051;-72
2023/08/16 02:46:38;;;;;;;15.52;10.27;;;12.60;99.90;;;;;;5066150;28;20040;-72
2023/08/16 02:49:04;;;;;;;9.80;5.93;;;12.50;99.90;;;;;;5082092;28;21318;-72
2023/08/16 02:51:29;;;;;;;12.25;8.20;;;12.50;99.90;;;;;;5083612;28;20085;-71
2023/08/16 02:53:55;;;;;;;14.13;9.18;;;12.60;99.90;;;;;;5082295;28;20051;-72
2023/08/16 02:56:21;;;;;;;9.00;6.65;;;12.50;99.90;;;;;;5081887;28;20036;-72
2023/08/16 02:58:47;;;;;;;9.77;7.07;;;12.40;99.90;;;;;;5083536;28;20046;-72
2023/08/16 03:01:14;;;;;;;6.90;4.90;;;12.40;99.90;;;;;;5084462;28;20674;-72
2023/08/16 03:03:41;;;;;;;7.25;5.65;;;12.40;99.90;;;;;;5084229;28;20040;-72
2023/08/16 03:06:07;;;;;;;5.88;4.50;;;12.40;99.90;;;;;;5083381;28;20141;-72
2023/08/16 03:08:33;;;;;;;6.70;3.88;;;12.50;99.90;;;;;;5066461;28;20051;-72
2023/08/16 03:10:59;;;;;;;3.47;3.17;;;12.50;99.90;;;;;;5098687;28;20051;-72
2023/08/16 03:13:25;;;;;;;4.97;3.42;;;12.60;99.90;;;;;;5083959;28;20495;-72
2023/08/16 03:15:51;;;;;;;5.90;3.53;;;12.60;99.90;;;;;;5082182;28;20049;-72
2023/08/16 03:18:16;;;;;;;11.30;7.40;;;12.60;99.90;;;;;;5081662;28;20097;-72
2023/08/16 03:20:42;;;;;;;7.97;4.80;;;12.60;99.90;;;;;;5079063;28;20401;-72
2023/08/16 03:23:11;;;;;;;6.07;4.80;;;12.50;99.90;;;;;;5082584;28;20047;-72
2023/08/16 03:25:36;;;;;;;7.47;4.95;;;12.50;99.90;;;;;;5083320;28;20097;-72
2023/08/16 03:28:02;;;;;;;5.85;5.25;;;12.50;99.90;;;;;;5084771;28;20044;-72
2023/08/16 03:30:28;;;;;;;7.63;6.30;;;12.50;99.90;;;;;;5067769;28;20418;-72
2023/08/16 03:32:54;;;;;;;7.40;5.68;;;12.60;99.90;;;;;;5084202;28;20106;-72
2023/08/16 03:35:20;;;;;;;6.00;4.72;;;12.60;99.90;;;;;;5082886;28;20047;-72
2023/08/16 03:37:49;;;;;;;6.13;4.40;;;12.70;99.90;;;;;;5084203;28;20043;-72
2023/08/16 03:40:14;;;;;;;7.85;5.90;;;12.70;99.90;;;;;;5067254;28;20051;-72
2023/08/16 03:42:40;;;;;;;5.60;4.97;;;12.70;99.90;;;;;;5063765;28;20036;-72
2023/08/16 03:45:06;;;;;;;8.27;5.82;;;12.70;99.90;;;;;;5084052;28;20040;-72
2023/08/16 03:47:33;;;;;;;6.93;5.50;;;12.70;99.90;;;;;;5059557;28;20397;-72
2023/08/16 03:49:59;;;;;;;6.93;5.88;;;12.80;99.90;;;;;;5067348;28;20123;-72
2023/08/16 03:52:26;;;;;;;6.85;5.72;;;12.70;99.90;;;;;;5082424;28;20097;-73
2023/08/16 03:54:53;;;;;;;8.63;6.50;;;12.80;99.90;;;;;;5082506;28;20090;-72
2023/08/16 03:57:21;;;;;;;22.85;14.18;;;12.70;99.90;;;;;;5081919;28;20051;-73
2023/08/16 03:59:47;;;;;;;17.33;13.02;;;12.80;99.90;;;;;;5061192;28;20074;-73
2023/08/16 04:02:15;;;;;;;27.60;17.42;;;12.80;99.90;;;;;;5074141;28;20075;-73
2023/08/16 04:04:41;;;;;;;13.82;11.18;;;12.70;99.90;;;;;;5113862;27;20048;-73
2023/08/16 04:07:10;;;;;;;10.98;9.88;;;12.70;99.90;;;;;;5066564;28;20052;-72
2023/08/16 04:09:36;;;;;;;10.18;9.20;;;12.70;99.90;;;;;;5079626;28;20498;-73
2023/08/16 04:12:05;;;;;;;11.38;10.20;;;12.80;99.90;;;;;;5081331;28;20047;-71
2023/08/16 04:14:31;;;;;;;10.98;9.98;;;12.70;99.90;;;;;;5079922;28;20115;-72
2023/08/16 04:16:56;;;;;;;9.68;8.77;;;12.80;99.90;;;;;;5081437;28;20070;-72
2023/08/16 04:19:22;;;;;;;9.77;8.88;;;12.80;99.90;;;;;;5082022;28;20565;-71
2023/08/16 04:21:48;;;;;;;8.68;7.10;;;12.90;99.90;;;;;;5081231;28;20040;-72
2023/08/16 04:24:14;;;;;;;9.85;7.35;;;12.90;99.90;;;;;;5065288;28;20048;-71
2023/08/16 04:26:40;;;;;;;6.72;5.50;;;12.80;99.90;;;;;;5078228;28;20047;-72
2023/08/16 04:29:06;;;;;;;10.00;7.07;;;12.80;99.90;;;;;;5081347;28;20093;-72
2023/08/16 04:31:32;;;;;;;8.35;6.80;;;12.80;99.90;;;;;;5065417;28;20032;-72
2023/08/16 04:33:58;;;;;;;7.38;6.53;;;12.80;99.90;;;;;;5081730;28;20166;-72
2023/08/16 04:36:24;;;;;;;11.80;7.53;;;12.80;99.90;;;;;;5080431;28;20122;-72
2023/08/16 04:38:50;;;;;;;8.52;6.80;;;12.80;99.90;;;;;;5066297;28;20052;-72
2023/08/16 04:41:15;;;;;;;8.95;6.80;;;12.70;99.90;;;;;;5078352;28;20387;-72
2023/08/16 04:43:44;;;;;;;9.75;7.05;;;12.70;99.90;;;;;;5065621;28;20040;-72
2023/08/16 04:46:10;;;;;;;8.23;7.30;;;12.70;99.90;;;;;;5065173;28;20047;-72
2023/08/16 04:48:36;;;;;;;7.93;6.70;;;12.70;99.90;;;;;;5064590;28;20044;-72
2023/08/16 04:51:01;;;;;;;7.63;6.85;;;12.80;99.90;;;;;;5079890;28;20132;-72
2023/08/16 04:53:27;;;;;;;8.25;6.78;;;12.80;99.90;;;;;;5082872;28;20039;-72
2023/08/16 04:55:53;;;;;;;7.43;6.03;;;12.80;99.90;;;;;;5065507;28;20482;-72
2023/08/16 04:58:19;;;;;;;8.95;6.32;;;12.70;99.90;;;;;;5064135;28;20051;-72
2023/08/16 05:00:44;;;;;;;7.15;6.32;;;12.70;99.90;;;;;;5082299;28;20488;-72
2023/08/16 05:03:10;;;;;;;6.88;6.18;;;12.70;99.90;;;;;;5083815;28;20054;-71
2023/08/16 05:05:36;;;;;;;7.75;5.88;;;12.70;99.90;;;;;;5077867;28;20064;-71
2023/08/16 05:08:04;;;;;;;8.38;5.93;;;12.80;99.90;;;;;;5068138;28;20580;-71
2023/08/16 05:10:30;;;;;;;9.90;8.90;;;12.80;99.90;;;;;;5069827;28;20047;-71
2023/08/16 05:12:56;;;;;;;8.40;7.40;;;12.80;99.90;;;;;;5082625;28;20509;-71
2023/08/16 05:15:22;;;;;;;9.77;8.60;;;12.80;99.90;;;;;;5084668;28;20040;-71
2023/08/16 05:17:47;;;;;;;12.10;8.80;;;12.80;99.90;;;;;;5085769;28;20437;-72
2023/08/16 05:20:13;;;;;;;8.52;6.80;;;12.80;99.90;;;;;;5064229;28;20510;-71
2023/08/16 05:22:39;;;;;;;7.25;6.32;;;12.80;99.90;;;;;;5119292;27;20035;-71
2023/08/16 05:25:05;;;;;;;11.27;9.63;;;12.90;99.90;;;;;;5069321;28;20729;-72
2023/08/16 05:27:31;;;;;;;9.27;7.95;;;12.90;99.90;;;;;;5069640;28;20096;-71
2023/08/16 05:29:58;;;;;;;7.90;6.82;;;13.00;99.90;;;;;;5064065;28;20130;-71
2023/08/16 05:32:24;;;;;;;8.52;7.63;;;13.00;99.90;;;;;;5085946;28;20122;-72
2023/08/16 05:34:53;;;;;;;10.50;9.23;;;13.00;99.90;;;;;;5098085;28;20127;-72
2023/08/16 05:37:19;;;;;;;11.23;9.65;;;13.10;99.90;;;;;;5082567;28;20200;-72
2023/08/16 05:39:44;;;;;;;14.05;12.65;;;13.20;99.90;;;;;;5066251;28;20174;-73
2023/08/16 05:42:10;;;;;;;14.30;12.18;;;13.20;99.90;;;;;;5084843;28;20647;-72
2023/08/16 05:44:36;;;;;;;18.05;16.10;;;13.40;99.90;;;;;;5065820;28;20043;-73
2023/08/16 05:47:01;;;;;;;17.48;15.70;;;13.40;99.90;;;;;;5065487;28;20071;-72
2023/08/16 05:49:28;;;;;;;22.00;18.83;;;13.50;99.90;;;;;;5083419;28;20113;-72
2023/08/16 05:51:54;;;;;;;19.25;17.35;;;13.60;99.90;;;;;;5083362;28;20052;-72
2023/08/16 05:54:20;;;;;;;18.58;16.23;;;13.70;99.90;;;;;;5083910;28;20413;-71
2023/08/16 05:56:45;;;;;;;14.95;13.05;;;13.80;99.90;;;;;;5078710;28;20038;-72
2023/08/16 05:59:11;;;;;;;14.15;12.75;;;13.90;99.90;;;;;;5084949;28;20561;-72
2023/08/16 06:01:40;;;;;;;17.48;14.35;;;14.00;99.90;;;;;;5084502;28;20032;-72
2023/08/16 06:04:06;;;;;;;17.40;15.68;;;14.10;99.90;;;;;;5114621;27;20043;-72
2023/08/16 06:06:32;;;;;;;20.23;18.25;;;14.10;99.90;;;;;;5085210;28;20079;-71
2023/08/16 06:08:58;;;;;;;19.33;16.20;;;14.20;99.90;;;;;;5086374;28;20062;-72
2023/08/16 06:11:24;;;;;;;19.05;17.08;;;14.30;99.90;;;;;;5064879;28;20044;-72
2023/08/16 06:13:49;;;;;;;23.00;20.73;;;14.40;99.90;;;;;;5067338;28;20051;-71
2023/08/16 06:16:16;;;;;;;17.88;15.98;;;14.50;99.90;;;;;;5066166;28;20654;-72
2023/08/16 06:18:41;;;;;;;20.38;18.38;;;14.60;99.90;;;;;;5082582;28;20561;-72
2023/08/16 06:21:07;;;;;;;17.60;15.82;;;14.60;99.90;;;;;;5072209;28;20054;-72
2023/08/16 06:23:33;;;;;;;16.38;14.73;;;14.70;99.90;;;;;;5117513;27;20043;-72
2023/08/16 06:25:59;;;;;;;16.50;14.80;;;14.80;99.90;;;;;;5070923;28;20047;-71
2023/08/16 06:28:24;;;;;;;15.27;13.75;;;14.80;99.90;;;;;;5086541;28;20521;-72
2023/08/16 06:30:50;;;;;;;17.25;13.48;;;14.90;99.90;;;;;;5088148;28;20165;-73
2023/08/16 06:33:17;;;;;;;15.00;13.45;;;14.90;99.90;;;;;;5086867;28;20402;-72
2023/08/16 06:35:43;;;;;;;15.05;13.55;;;15.00;99.90;;;;;;5100443;28;20050;-72
2023/08/16 06:38:08;;;;;;;14.48;12.98;;;15.10;99.90;;;;;;5119484;27;20061;-72
2023/08/16 06:40:34;;;;;;;17.00;13.60;;;15.20;99.90;;;;;;5088234;28;20161;-72
2023/08/16 06:43:01;;;;;;;13.80;12.43;;;15.30;99.90;;;;;;5084717;28;20044;-73
2023/08/16 06:45:26;;;;;;;13.20;11.88;;;15.40;99.90;;;;;;5122965;27;20047;-72
2023/08/16 06:47:52;;;;;;;14.32;12.80;;;15.50;99.90;;;;;;5085289;27;20039;-72
2023/08/16 06:50:18;;;;;;;16.20;13.70;;;15.60;99.90;;;;;;5089641;28;20524;-72
2023/08/16 06:52:44;;;;;;;14.93;12.55;;;15.70;99.90;;;;;;5086135;28;20062;-72
2023/08/16 06:55:10;;;;;;;15.82;12.98;;;15.80;99.90;;;;;;5086947;28;20062;-73
2023/08/16 06:57:35;;;;;;;14.32;12.48;;;15.80;99.90;;;;;;5085887;28;20038;-72
2023/08/16 07:00:03;;;;;;;12.50;11.20;;;15.90;99.90;;;;;;5087582;28;20048;-72
2023/08/16 07:02:29;;;;;;;14.73;12.52;;;16.00;99.90;;;;;;5085527;28;20044;-72
2023/08/16 07:04:55;;;;;;;16.92;12.18;;;16.00;99.90;;;;;;5086623;28;20052;-72
2023/08/16 07:07:20;;;;;;;13.07;10.93;;;16.10;99.90;;;;;;5085299;28;20039;-72
2023/08/16 07:09:46;;;;;;;15.75;14.07;;;16.10;99.90;;;;;;5069813;28;20078;-72
2023/08/16 07:12:14;;;;;;;14.07;12.45;;;16.20;99.90;;;;;;5068879;28;20063;-72
2023/08/16 07:14:39;;;;;;;14.07;10.95;;;16.30;99.90;;;;;;5121372;27;20572;-73
2023/08/16 07:17:05;;;;;;;13.32;10.40;;;16.40;99.90;;;;;;5069033;28;20126;-72
2023/08/16 07:19:31;;;;;;;12.73;11.15;;;16.40;99.90;;;;;;5085983;28;20071;-73
2023/08/16 07:21:57;;;;;;;11.63;10.32;;;16.50;99.90;;;;;;5068032;28;20047;-72
2023/08/16 07:24:23;;;;;;;11.15;10.05;;;16.60;99.90;;;;;;5084272;28;20090;-72
2023/08/16 07:26:49;;;;;;;13.25;8.73;;;16.80;99.90;;;;;;5085433;27;20615;-72
2023/08/16 07:29:16;;;;;;;11.52;8.50;;;16.80;99.90;;;;;;5086534;28;20141;-72
2023/08/16 07:31:41;;;;;;;9.48;7.80;;;16.90;99.90;;;;;;5084760;28;20047;-72
2023/08/16 07:34:10;;;;;;;8.30;7.40;;;17.00;99.90;;;;;;5086953;28;20036;-72
2023/08/16 07:36:35;;;;;;;11.45;7.97;;;17.10;99.90;;;;;;5083113;28;20127;-72
2023/08/16 07:39:02;;;;;;;11.15;6.63;;;17.20;99.90;;;;;;5086290;28;20146;-72
2023/08/16 07:41:27;;;;;;;8.13;6.13;;;17.40;99.90;;;;;;5084363;28;21209;-72
2023/08/16 07:43:53;;;;;;;8.82;5.82;;;17.50;99.90;;;;;;5084310;28;20491;-72
2023/08/16 07:46:19;;;;;;;7.43;5.82;;;17.70;99.90;;;;;;5083358;28;20044;-72
2023/08/16 07:48:44;;;;;;;6.90;5.30;;;17.80;99.90;;;;;;5083280;28;20032;-72
2023/08/16 07:51:10;;;;;;;9.05;5.28;;;18.00;99.90;;;;;;5084779;28;20130;-72
2023/08/16 07:53:36;;;;;;;6.75;4.00;;;18.10;99.90;;;;;;5085507;28;20039;-72
2023/08/16 07:56:02;;;;;;;7.00;4.45;;;18.30;99.90;;;;;;5081418;28;20460;-72
2023/08/16 07:58:28;;;;;;;6.93;3.67;;;18.50;99.90;;;;;;5082811;28;20066;-72
2023/08/16 08:00:54;;;;;;;5.95;3.65;;;18.60;99.90;;;;;;5070501;28;20046;-73
2023/08/16 08:03:23;;;;;;;5.20;2.80;;;18.60;99.90;;;;;;5065643;28;20051;-73
2023/08/16 08:05:49;;;;;;;6.30;2.80;;;18.80;99.90;;;;;;5086072;28;20040;-72
2023/08/16 08:08:15;;;;;;;5.40;2.83;;;18.90;99.90;;;;;;5084472;28;20058;-72
2023/08/16 08:10:45;;;;;;;3.15;2.10;;;19.00;99.90;;;;;;5069533;28;20045;-74
2023/08/16 08:13:11;;;;;;;4.47;2.05;;;19.30;99.90;;;;;;5085801;28;20056;-72
2023/08/16 08:15:37;;;;;;;4.78;1.88;;;19.40;99.90;;;;;;5069589;28;20176;-72
2023/08/16 08:18:04;;;;;;;5.22;2.10;;;19.40;99.90;;;;;;5069201;28;20370;-71
2023/08/16 08:20:30;;;;;;;4.25;2.30;;;19.60;99.90;;;;;;5085851;28;20193;-72
2023/08/16 08:22:56;;;;;;;5.57;2.17;;;19.70;99.90;;;;;;5084840;28;20127;-72
2023/08/16 08:25:22;;;;;;;3.35;1.83;;;19.80;99.90;;;;;;5086208;28;20132;-72
2023/08/16 08:27:48;;;;;;;4.47;2.60;;;19.80;99.90;;;;;;5081560;28;20038;-72
2023/08/16 08:30:16;;;;;;;5.25;2.78;;;19.90;99.90;;;;;;5066145;28;20043;-72
2023/08/16 08:32:42;;;;;;;3.38;1.70;;;20.00;99.90;;;;;;5085685;28;20046;-72
2023/08/16 08:35:11;;;;;;;4.63;1.75;;;20.10;99.90;;;;;;5085021;28;20036;-72
2023/08/16 08:37:36;;;;;;;3.63;1.60;;;20.20;99.90;;;;;;5070011;28;20044;-72
2023/08/16 08:40:04;;;;;;;4.05;1.75;;;20.30;99.90;;;;;;5082254;28;20054;-72
2023/08/16 08:42:31;;;;;;;3.28;1.65;;;20.30;99.90;;;;;;5083346;28;20059;-72
2023/08/16 08:44:59;;;;;;;4.32;1.77;;;20.30;99.90;;;;;;5067349;28;20600;-72
2023/08/16 08:47:25;;;;;;;4.88;1.95;;;20.30;99.90;;;;;;5082976;28;20096;-72
2023/08/16 08:49:51;;;;;;;3.35;1.58;;;20.40;99.90;;;;;;5067919;28;20451;-72
2023/08/16 08:52:18;;;;;;;5.28;1.50;;;20.40;99.90;;;;;;5084049;28;20079;-72
2023/08/16 08:54:45;;;;;;;3.85;1.90;;;20.40;99.90;;;;;;5085014;28;20192;-72
2023/08/16 08:57:11;;;;;;;3.40;1.75;;;20.50;99.90;;;;;;5083946;28;20549;-72
2023/08/16 08:59:41;;;;;;;3.55;1.40;;;20.50;99.90;;;;;;5067816;28;20397;-72
2023/08/16 09:02:12;;;;;;;4.25;1.40;;;20.50;99.90;;;;;;5067573;28;20446;-72
2023/08/16 09:04:41;;;;;;;3.10;1.38;;;20.60;99.90;;;;;;5084447;28;20559;-72
2023/08/16 09:07:08;;;;;;;2.60;1.55;;;20.70;99.90;;;;;;5082163;28;20137;-72
2023/08/16 09:09:35;;;;;;;4.40;1.95;;;20.80;99.90;;;;;;5067093;28;20040;-72
2023/08/16 09:12:01;;;;;;;3.17;1.27;;;20.90;99.90;;;;;;5065826;28;20043;-72
2023/08/16 09:14:27;;;;;;;4.30;1.50;;;21.00;99.90;;;;;;5085732;28;20065;-72
2023/08/16 09:16:53;;;;;;;3.00;1.73;;;21.10;99.90;;;;;;5067428;28;20115;-72
2023/08/16 09:19:18;;;;;;;3.47;1.60;;;21.10;99.90;;;;;;5065239;28;20087;-72
2023/08/16 09:21:44;;;;;;;3.47;1.45;;;21.10;99.90;;;;;;5081524;28;20063;-72
2023/08/16 09:24:10;;;;;;;3.00;1.45;;;21.00;99.90;;;;;;5084841;28;20054;-72
2023/08/16 09:26:37;;;;;;;2.05;1.20;;;21.10;99.90;;;;;;5082442;28;20092;-72
2023/08/16 09:29:04;;;;;;;3.33;1.60;;;21.20;99.90;;;;;;5066034;28;20042;-72
2023/08/16 09:31:41;;;;;;;4.03;1.17;;;21.30;99.90;;;;;;5067631;28;20051;-73
2023/08/16 09:34:12;;;;;;;2.20;1.00;;;21.50;99.90;;;;;;5064658;28;20541;-73
2023/08/16 09:36:43;;;;;;;2.72;1.33;;;21.60;99.90;;;;;;5084124;28;20063;-72
2023/08/16 09:39:09;;;;;;;5.75;1.50;;;21.70;99.90;;;;;;5068744;28;20047;-72
2023/08/16 09:41:36;;;;;;;3.70;1.20;;;21.90;99.90;;;;;;5088052;28;20092;-73
2023/08/16 09:44:04;;;;;;;2.90;1.50;;;22.00;99.90;;;;;;5065691;28;20490;-72
2023/08/16 09:46:30;;;;;;;4.85;1.45;;;22.10;99.90;;;;;;5085255;28;20828;-73
2023/08/16 09:49:06;;;;;;;3.10;1.23;;;22.20;99.90;;;;;;5082174;28;20044;-73
2023/08/16 09:51:36;;;;;;;2.72;1.15;;;22.20;99.90;;;;;;5116554;27;20039;-73
2023/08/16 09:54:12;;;;;;;3.60;1.40;;;22.20;99.90;;;;;;5083268;28;20044;-72
2023/08/16 09:56:39;;;;;;;3.63;1.23;;;22.20;99.90;;;;;;5067433;28;20044;-73
2023/08/16 09:59:09;;;;;;;4.75;1.38;;;22.30;99.90;;;;;;5117542;27;20436;-73
2023/08/16 10:01:35;;;;;;;;;;;22.40;99.90;;;;;;5069012;28;20048;-73
2023/08/16 10:04:02;;;;;;;2.95;1.30;;;22.40;99.90;;;;;;5083427;28;19985;-73
2023/08/16 10:06:32;;;;;;;2.40;0.90;;;22.40;99.90;;;;;;5082617;28;20143;-72
2023/08/16 10:08:59;;;;;;;8.23;1.70;;;22.40;99.90;;;;;;5083179;28;20071;-72
2023/08/16 10:11:26;;;;;;;3.55;1.38;;;22.40;99.90;;;;;;5081669;28;20050;-72
2023/08/16 10:13:53;;;;;;;2.83;1.30;;;22.50;99.90;;;;;;5080470;28;20031;-72
2023/08/16 10:16:21;;;;;;;2.63;1.13;;;22.50;99.90;;;;;;5081628;28;20047;-72
2023/08/16 10:18:47;;;;;;;2.85;1.45;;;22.70;99.90;;;;;;5100153;28;20053;-73
2023/08/16 10:21:17;;;;;;;4.28;1.40;;;22.70;99.90;;;;;;5067352;28;20113;-72
2023/08/16 10:23:44;;;;;;;3.35;1.60;;;22.80;99.90;;;;;;5081979;28;20042;-72
2023/08/16 10:26:14;;;;;;;4.60;1.60;;;22.90;99.90;;;;;;5065343;28;20048;-72
2023/08/16 10:28:44;;;;;;;;;;;23.00;99.90;;;;;;5084065;28;20051;-73
2023/08/16 10:31:11;;;;;;;5.75;2.03;;;23.10;99.90;;;;;;5082494;28;19962;-72
2023/08/16 10:33:44;;;;;;;4.18;1.55;;;23.10;99.90;;;;;;5081498;28;20036;-72
2023/08/16 10:36:11;;;;;;;3.42;1.40;;;23.10;99.90;;;;;;5115653;27;20109;-73
2023/08/16 10:38:41;;;;;;;4.30;1.60;;;23.00;99.90;;;;;;5083787;28;20489;-72
2023/08/16 10:41:12;;;;;;;4.28;1.35;;;23.10;99.90;;;;;;5063910;28;20044;-73
2023/08/16 10:43:38;;;;;;;3.72;1.40;;;23.10;99.90;;;;;;5065789;28;20039;-72
2023/08/16 10:46:04;;;;;;;2.75;1.25;;;23.20;99.90;;;;;;5066391;28;20039;-72
2023/08/16 10:48:34;;;;;;;3.78;1.10;;;23.30;99.90;;;;;;5085547;28;20047;-72
2023/08/16 10:51:04;;;;;;;3.63;1.30;;;23.30;99.90;;;;;;5062339;28;20074;-73
2023/08/16 10:53:31;;;;;;;4.53;1.45;;;23.30;99.90;;;;;;5083121;28;20047;-73
2023/08/16 10:55:57;;;;;;;3.92;1.60;;;23.40;99.90;;;;;;5078489;28;20288;-72
2023/08/16 10:58:24;;;;;;;3.08;1.20;;;23.50;99.90;;;;;;5082970;28;20082;-73
2023/08/16 11:00:58;;;;;;;2.30;1.17;;;23.60;99.90;;;;;;5081117;28;20032;-72
2023/08/16 11:03:33;;;;;;;2.50;1.02;;;23.70;99.90;;;;;;5080903;28;20051;-72
2023/08/16 11:06:10;;;;;;;2.47;0.90;;;23.80;99.90;;;;;;5065755;28;20063;-72
2023/08/16 11:08:40;;;;;;;2.55;0.90;;;23.80;99.90;;;;;;5070568;28;20447;-72
2023/08/16 11:11:06;;;;;;;1.63;0.90;;;23.80;99.90;;;;;;5085107;28;20053;-72
2023/08/16 11:13:32;;;;;;;3.05;1.33;;;23.80;99.90;;;;;;5080786;28;20043;-72
2023/08/16 11:15:58;;;;;;;2.63;0.90;;;23.80;99.10;;;;;;5083119;27;20044;-72
2023/08/16 11:18:32;;;;;;;3.83;1.17;;;23.80;99.60;;;;;;5084648;28;20047;-72
2023/08/16 11:20:59;;;;;;;3.08;1.00;;;23.70;98.10;;;;;;5067915;28;20043;-72
2023/08/16 11:23:41;;;;;;;2.63;0.98;;;23.80;99.40;;;;;;5085079;28;20181;-72
2023/08/16 11:26:08;;;;;;;2.88;1.10;;;23.80;99.50;;;;;;5118104;27;20486;-72
2023/08/16 11:28:35;;;;;;;2.55;0.80;;;24.00;98.70;;;;;;5087772;28;20050;-72
2023/08/16 11:31:03;;;;;;;3.85;1.00;;;24.00;97.70;;;;;;5118475;27;20142;-73
2023/08/16 11:33:33;;;;;;;2.75;1.00;;;24.10;99.10;;;;;;5086004;28;20134;-72
2023/08/16 11:36:04;;;;;;;4.13;1.33;;;24.30;99.80;;;;;;5084895;28;20039;-72
2023/08/16 11:38:30;;;;;;;2.63;1.00;;;24.50;99.40;;;;;;5085013;28;20122;-72
2023/08/16 11:40:59;;;;;;;1.95;0.95;;;24.50;98.30;;;;;;5081185;28;20056;-72
2023/08/16 11:43:30;;;;;;;2.83;1.30;;;24.30;98.50;;;;;;5085472;28;20063;-72
2023/08/16 11:45:57;;;;;;;5.55;1.30;;;24.20;99.10;;;;;;5083062;28;20044;-72
2023/08/16 11:48:29;;;;;;;3.53;1.70;;;24.20;98.60;;;;;;5063566;28;20071;-72
2023/08/16 11:50:58;;;;;;;3.15;1.77;;;24.20;98.20;;;;;;5069098;28;21417;-72
2023/08/16 11:53:31;;;;;;;4.82;1.80;;;24.10;98.10;;;;;;5069474;28;20079;-73
2023/08/16 11:56:02;;;;;;;3.22;1.83;;;24.00;98.50;;;;;;5118336;27;20101;-73
2023/08/16 11:58:28;;;;;;;4.45;1.70;;;24.00;98.70;;;;;;5083453;28;20317;-73
2023/08/16 12:01:05;;;;;;;4.65;2.00;;;24.00;99.90;;;;;;5083160;28;20035;-73
2023/08/16 12:03:34;;;;;;;3.22;1.80;;;24.20;99.90;;;;;;5083192;28;20509;-75
2023/08/16 12:06:11;;;;;;;3.92;1.80;;;24.30;99.20;;;;;;5102071;28;20035;-72
2023/08/16 12:08:51;;;;;;;4.57;2.10;;;24.30;98.40;;;;;;5116455;27;20082;-73
2023/08/16 12:11:31;;;;;;;3.28;1.55;;;24.20;99.20;;;;;;5085090;28;20839;-73
2023/08/16 12:13:57;;;;;;;;;;;24.20;99.50;;;;;;5084748;28;20047;-72
2023/08/16 12:16:22;;;;;;;2.33;1.70;;;24.10;99.80;;;;;;5083185;28;19961;-73
2023/08/16 12:18:49;;;;;;;3.80;1.98;;;24.00;99.90;;;;;;5119649;27;20075;-74
2023/08/16 12:21:15;;;;;;;4.85;2.00;;;24.00;98.50;;;;;;5067620;28;20055;-74
2023/08/16 12:23:41;;;;;;;3.97;1.75;;;23.80;98.90;;;;;;5083582;28;20432;-74
2023/08/16 12:26:08;;;;;;;3.67;1.73;;;23.70;98.30;;;;;;5086578;27;20601;-73
2023/08/16 12:28:33;;;;;;;3.53;1.77;;;23.70;99.20;;;;;;5102968;28;20504;-74
2023/08/16 12:30:59;;;;;;;3.08;1.52;;;23.70;98.90;;;;;;5084705;28;20036;-74
2023/08/16 12:33:25;;;;;;;2.95;1.20;;;23.70;98.10;;;;;;5118237;27;20035;-73
2023/08/16 12:35:51;;;;;;;4.28;1.67;;;23.80;99.50;;;;;;5084025;28;20602;-73
2023/08/16 12:38:18;;;;;;;3.50;1.70;;;23.80;98.50;;;;;;5085751;28;20047;-73
2023/08/16 12:40:45;;;;;;;3.38;1.13;;;23.90;98.50;;;;;;5080289;28;20097;-73
2023/08/16 12:43:11;;;;;;;3.03;1.33;;;23.90;99.10;;;;;;5119158;27;20571;-73